createdAt,value
2023-01-11T00:11:07.289Z,34.50
2023-01-11T00:14:49.718Z,36.00
2023-01-11T00:18:38.967Z,36.40
2023-01-11T00:22:28.140Z,37.40
2023-01-11T00:26:17.171Z,36.90
2023-01-11T00:30:06.219Z,37.00
2023-01-11T00:33:58.342Z,39.90
2023-01-11T00:37:47.670Z,37.60
2023-01-11T00:41:35.118Z,35.20
2023-01-11T00:45:24.226Z,33.90
2023-01-11T00:49:13.359Z,33.10
2023-01-11T00:53:02.568Z,35.70
2023-01-11T00:56:52.527Z,31.30
2023-01-11T01:00:41.837Z,32.20
2023-01-11T01:08:18.475Z,32.30
2023-01-11T01:35:20.815Z,41.10
2023-01-11T01:39:02.244Z,37.00
2023-01-11T01:42:52.817Z,37.60
2023-01-11T01:46:40.770Z,39.10
2023-01-11T01:50:28.727Z,37.60
2023-01-11T01:54:16.397Z,36.10
2023-01-11T01:58:04.595Z,38.00
2023-01-11T02:14:00.169Z,37.80
2023-01-11T02:17:49.513Z,34.50
2023-01-11T02:22:03.084Z,33.60
2023-01-11T02:38:14.075Z,35.30
2023-01-11T02:42:04.828Z,39.20
2023-01-11T02:45:44.970Z,34.90
2023-01-11T02:49:37.093Z,30.40
2023-01-11T03:05:11.998Z,40.80
2023-01-11T03:09:22.733Z,35.40
2023-01-11T03:13:17.254Z,37.10
2023-01-11T03:24:44.165Z,39.00
2023-01-11T03:28:42.221Z,37.10
2023-01-11T03:32:36.483Z,38.30
2023-01-11T03:44:13.150Z,40.50
2023-01-11T03:48:02.148Z,42.00
2023-01-11T03:51:51.189Z,42.40
2023-01-11T03:55:40.203Z,40.50
2023-01-11T03:59:24.115Z,44.20
2023-01-11T04:03:14.659Z,44.40
2023-01-11T04:06:42.146Z,38.70
2023-01-11T04:10:31.170Z,47.90
2023-01-11T04:14:20.329Z,46.70
2023-01-11T04:18:09.507Z,43.30
2023-01-11T04:21:59.367Z,39.30
2023-01-11T04:37:42.388Z,49.70
2023-01-11T04:41:30.038Z,44.90
2023-01-11T04:45:19.243Z,42.20
2023-01-11T04:49:08.203Z,40.30
2023-01-11T04:52:57.751Z,48.90
2023-01-11T04:56:47.001Z,40.90
2023-01-11T05:00:37.182Z,44.90
2023-01-11T05:04:26.318Z,46.90
2023-01-11T05:08:08.226Z,57.60
2023-01-11T05:11:58.621Z,65.00
2023-01-11T05:38:54.270Z,90.10
2023-01-11T05:42:43.427Z,68.80
2023-01-11T05:46:24.870Z,66.30
2023-01-11T05:50:13.997Z,53.80
2023-01-11T05:53:53.356Z,57.60
2023-01-11T05:57:43.397Z,61.40
2023-01-11T06:01:35.749Z,73.00
2023-01-11T06:04:22.916Z,70.20
2023-01-11T06:07:50.637Z,80.30
2023-01-11T06:11:38.464Z,78.40
2023-01-11T06:15:25.756Z,69.20
2023-01-11T06:19:13.446Z,53.60
2023-01-11T06:23:01.364Z,53.60
2023-01-11T06:26:50.065Z,48.80
2023-01-11T06:30:37.916Z,47.30
2023-01-11T06:34:08.703Z,41.80
2023-01-11T06:37:51.791Z,34.70
2023-01-11T06:41:40.017Z,33.20
2023-01-11T06:45:28.277Z,32.00
2023-01-11T06:49:05.157Z,29.30
2023-01-11T06:52:41.832Z,27.10
2023-01-11T06:56:29.767Z,24.40
2023-01-11T07:00:08.623Z,23.90
2023-01-11T07:17:49.114Z,37.40
2023-01-11T07:21:04.079Z,32.20
2023-01-11T07:24:31.208Z,37.70
2023-01-11T07:27:21.624Z,39.10
2023-01-11T07:30:58.765Z,37.00
2023-01-11T07:34:48.481Z,30.40
2023-01-11T07:38:10.622Z,28.80
2023-01-11T07:41:57.250Z,26.90
2023-01-11T07:45:45.278Z,31.30
2023-01-11T07:49:37.728Z,30.40
2023-01-11T07:53:16.955Z,65.10
2023-01-11T07:57:06.727Z,79.90
2023-01-11T08:00:56.277Z,89.80
2023-01-11T08:04:45.623Z,68.70
2023-01-11T08:08:37.066Z,60.70
2023-01-11T08:12:25.101Z,57.90
2023-01-11T08:16:14.387Z,42.90
2023-01-11T08:20:03.897Z,31.60
2023-01-11T08:23:12.915Z,40.80
2023-01-11T08:25:52.051Z,49.20
2023-01-11T08:29:35.998Z,48.10
2023-01-11T08:40:35.685Z,71.70
2023-01-11T08:47:09.581Z,46.20
2023-01-11T08:50:21.272Z,34.70
2023-01-11T09:23:14.195Z,21.70
2023-01-11T09:26:46.964Z,16.00
2023-01-11T09:30:26.110Z,16.80
2023-01-11T09:33:37.670Z,17.90
2023-01-11T09:36:43.237Z,19.10
2023-01-11T09:40:25.377Z,21.00
2023-01-11T09:44:14.617Z,12.90
2023-01-11T09:48:43.271Z,13.70
2023-01-11T10:18:23.559Z,13.00
2023-01-11T10:19:05.916Z,12.50
2023-01-11T10:22:59.823Z,12.40
2023-01-11T10:26:38.365Z,13.20
2023-01-11T10:30:52.965Z,12.50
2023-01-11T10:58:03.775Z,13.30
2023-01-11T11:02:00.578Z,12.30
2023-01-11T11:16:58.626Z,13.50
2023-01-11T11:20:44.239Z,11.10
2023-01-11T11:24:13.678Z,10.60
2023-01-11T11:28:05.921Z,11.20
2023-01-11T11:31:36.424Z,10.20
2023-01-11T11:35:06.993Z,9.20
2023-01-11T11:50:27.413Z,7.80
2023-01-11T11:54:31.113Z,7.30
2023-01-11T11:57:22.418Z,7.50
2023-01-11T12:00:45.618Z,7.40
2023-01-11T12:04:25.346Z,7.10
2023-01-11T12:07:54.720Z,6.90
2023-01-11T12:11:47.883Z,7.70
2023-01-11T12:26:56.277Z,27.30
2023-01-11T12:30:54.702Z,17.60
2023-01-11T12:34:32.168Z,11.40
2023-01-11T12:38:54.792Z,13.40
2023-01-11T12:42:36.960Z,10.30
2023-01-11T12:50:22.703Z,9.50
2023-01-11T13:09:02.471Z,15.40
2023-01-11T13:13:00.613Z,11.80
2023-01-11T13:28:44.309Z,27.90
2023-01-11T13:32:34.848Z,11.40
2023-01-11T13:36:47.335Z,22.50
2023-01-11T13:40:37.646Z,7.10
2023-01-11T13:52:31.206Z,7.50
2023-01-11T13:56:20.307Z,7.20
2023-01-11T14:00:12.695Z,7.00
2023-01-11T14:04:03.103Z,70.10
2023-01-11T14:16:33.399Z,63.20
2023-01-11T14:20:21.234Z,95.00
2023-01-11T14:24:34.507Z,42.60
2023-01-11T14:28:15.893Z,8.70
2023-01-11T14:44:17.057Z,6.10
2023-01-11T14:48:30.881Z,8.50
2023-01-11T14:52:39.634Z,13.20
2023-01-11T15:08:23.040Z,19.60
2023-01-11T15:12:21.814Z,11.30
2023-01-11T15:16:12.647Z,6.60
2023-01-11T15:24:05.796Z,4.70
2023-01-11T15:28:05.131Z,6.30
2023-01-11T15:32:12.602Z,6.50
2023-01-11T15:40:03.898Z,5.40
2023-01-11T15:43:57.263Z,5.40
2023-01-11T15:47:44.896Z,5.40
2023-01-11T15:51:36.823Z,4.50
2023-01-11T16:07:27.923Z,4.80
2023-01-11T16:11:17.350Z,6.40
2023-01-11T16:15:20.268Z,6.20
2023-01-11T16:27:40.431Z,7.90
2023-01-11T16:31:10.879Z,6.70
2023-01-11T16:34:38.663Z,7.00
2023-01-11T16:38:03.253Z,7.40
2023-01-11T16:41:52.089Z,6.40
2023-01-11T16:53:36.306Z,9.40
2023-01-11T16:57:21.207Z,9.90
2023-01-11T17:01:19.507Z,10.00
2023-01-11T17:04:45.107Z,6.90
2023-01-11T17:20:14.578Z,6.10
2023-01-11T17:24:03.654Z,7.00
2023-01-11T17:27:56.098Z,6.30
2023-01-11T17:39:44.934Z,5.80
2023-01-11T17:43:37.204Z,5.20
2023-01-11T17:47:19.204Z,6.10
2023-01-11T17:51:27.868Z,6.20
2023-01-11T18:07:21.282Z,4.50
2023-01-11T18:11:20.537Z,5.20
2023-01-11T18:15:08.892Z,4.60
2023-01-11T18:23:13.314Z,5.40
2023-01-11T18:27:08.780Z,5.00
2023-01-11T18:31:11.207Z,6.30
2023-01-11T18:34:30.132Z,4.40
2023-01-11T18:37:20.258Z,4.60
2023-01-11T18:40:51.191Z,4.80
2023-01-11T18:44:31.200Z,5.50
2023-01-11T18:48:29.991Z,5.60
2023-01-11T18:52:00.921Z,5.30
2023-01-11T19:04:19.098Z,5.00
2023-01-11T19:08:06.648Z,4.60
2023-01-11T19:11:24.243Z,5.40
2023-01-11T19:15:11.979Z,5.00
2023-01-11T19:19:00.123Z,5.00
2023-01-11T19:46:11.500Z,5.20
2023-01-11T19:49:59.832Z,5.00
2023-01-11T19:53:49.006Z,5.90
2023-01-11T19:57:41.288Z,5.50
2023-01-11T20:01:30.518Z,6.40
2023-01-11T20:05:02.016Z,21.10
2023-01-11T20:08:51.277Z,7.60
2023-01-11T20:12:40.689Z,6.10
2023-01-11T20:15:59.818Z,6.10
2023-01-11T20:18:55.679Z,6.70
2023-01-11T20:22:44.723Z,6.00
2023-01-11T20:25:56.370Z,5.30
2023-01-11T20:29:45.737Z,5.70
2023-01-11T20:36:54.139Z,4.70
2023-01-11T20:55:52.060Z,5.40
2023-01-11T20:58:50.498Z,4.20
2023-01-11T21:02:31.067Z,4.50
2023-01-11T21:06:19.255Z,4.60
2023-01-11T21:09:58.253Z,4.10
2023-01-11T21:13:46.261Z,3.70
2023-01-11T21:16:35.929Z,4.10
2023-01-11T21:20:03.183Z,3.90
2023-01-11T21:23:51.148Z,3.90
2023-01-11T21:27:29.018Z,4.20
2023-01-11T21:31:18.803Z,4.30
2023-01-11T21:35:07.202Z,5.90
2023-01-11T21:38:55.649Z,5.50
2023-01-11T21:42:44.112Z,5.10
2023-01-11T21:46:27.865Z,25.60
2023-01-11T21:50:17.986Z,8.70
2023-01-11T21:53:45.389Z,11.80
2023-01-11T22:01:20.493Z,7.20
2023-01-11T22:05:11.566Z,9.90
2023-01-11T22:08:58.784Z,4.70
2023-01-11T22:12:46.498Z,5.40
2023-01-11T22:16:35.541Z,15.60
2023-01-11T22:27:57.646Z,7.00
2023-01-11T22:31:44.919Z,6.30
2023-01-11T22:35:21.981Z,6.40
2023-01-11T22:46:40.805Z,5.50
2023-01-11T22:50:07.685Z,4.90
2023-01-11T22:52:43.257Z,5.60
2023-01-11T22:56:10.451Z,5.10
2023-01-11T22:59:35.999Z,5.90
2023-01-11T23:03:23.652Z,5.30
2023-01-11T23:06:54.692Z,6.10
2023-01-11T23:09:44.567Z,4.80
2023-01-11T23:12:50.679Z,5.60
2023-01-11T23:16:25.598Z,5.10
2023-01-11T23:20:13.144Z,5.60
2023-01-11T23:23:26.918Z,5.70
2023-01-11T23:27:04.701Z,5.70
2023-01-11T23:30:52.352Z,5.80
2023-01-11T23:34:40.014Z,6.00
2023-01-11T23:49:50.822Z,6.20
2023-01-11T23:53:38.588Z,6.50
2023-01-11T23:57:24.965Z,7.00
